Time;durP1;ratioP1;P1;durP2;ratioP2;P2;SDS_P1;SDS_P2;PMS_P1;PMS_P2;Temp;Humidity;BMP_temperature;BMP_pressure;BME280_temperature;BME280_humidity;BME280_pressure;Samples;Min_cycle;Max_cycle;Signal;HPM_P1;HPM_P2
2024/01/02 00:00:05;;;;;;;3.70;1.10;;;;;;;4.95;98.15;99847.33;105523;1252;72320;-57
2024/01/02 00:02:58;;;;;;;2.60;0.90;;;;;;;4.84;98.11;99846.54;105494;1253;69093;-57
2024/01/02 00:05:27;;;;;;;2.50;0.90;;;;;;;4.76;98.10;99852.43;105567;1255;69214;-56
2024/01/02 00:07:56;;;;;;;3.30;0.90;;;;;;;4.70;98.22;99851.34;105594;1256;74183;-57
2024/01/02 00:10:24;;;;;;;3.20;0.70;;;;;;;4.63;98.22;99844.58;105564;1255;81741;-57
2024/01/02 00:12:52;;;;;;;4.30;1.00;;;;;;;4.58;98.40;99843.30;105474;1251;73111;-57
2024/01/02 00:15:21;;;;;;;3.30;0.90;;;;;;;4.53;98.50;99836.13;105505;1253;69087;-57
2024/01/02 00:17:49;;;;;;;4.10;1.10;;;;;;;4.50;98.64;99839.15;105510;1255;69198;-57
2024/01/02 00:20:17;;;;;;;5.50;1.30;;;;;;;4.46;98.73;99845.79;105624;1254;72858;-57
2024/01/02 00:22:45;;;;;;;3.00;0.70;;;;;;;4.42;98.81;99842.61;105478;1255;81558;-57
2024/01/02 00:25:14;;;;;;;3.30;0.50;;;;;;;4.40;99.07;99840.38;105543;1253;71480;-57
2024/01/02 00:27:42;;;;;;;4.00;1.10;;;;;;;4.39;99.16;99844.05;105538;1253;69076;-57
2024/01/02 00:30:12;;;;;;;2.90;0.70;;;;;;;4.37;99.27;99844.94;105554;1255;69189;-57
2024/01/02 00:32:40;;;;;;;2.70;0.80;;;;;;;4.37;99.43;99844.42;105644;1253;72985;-57
2024/01/02 00:35:13;;;;;;;5.60;1.10;;;;;;;4.36;99.47;99842.05;105576;1255;81890;-57
2024/01/02 00:37:41;;;;;;;4.10;0.80;;;;;;;4.36;99.60;99838.41;105533;1253;72607;-56
2024/01/02 00:40:10;;;;;;;5.90;1.20;;;;;;;4.37;99.78;99837.70;105485;1253;69135;-56
2024/01/02 00:42:38;;;;;;;4.00;0.90;;;;;;;4.37;99.80;99839.06;105594;1255;69171;-56
2024/01/02 00:45:07;;;;;;;5.30;1.30;;;;;;;4.38;99.96;99833.52;105471;1253;73055;-56
2024/01/02 00:47:35;;;;;;;4.30;0.90;;;;;;;4.39;100.00;99834.36;105574;1253;83240;-57
2024/01/02 00:50:04;;;;;;;6.20;1.00;;;;;;;4.41;100.00;99833.80;105473;1257;71688;-56
2024/01/02 00:52:33;;;;;;;5.40;1.10;;;;;;;4.42;100.00;99830.67;105561;1255;69193;-57
2024/01/02 00:55:02;;;;;;;3.00;1.10;;;;;;;4.43;100.00;99836.02;105588;1256;69110;-57
2024/01/02 00:57:31;;;;;;;5.30;1.20;;;;;;;4.44;100.00;99839.29;105589;1253;72824;-56
2024/01/02 00:59:59;;;;;;;1.90;0.80;;;;;;;4.44;99.98;99841.70;105573;1259;81268;-56
2024/01/02 01:02:27;;;;;;;8.00;1.60;;;;;;;4.44;100.00;99839.61;105607;1253;73802;-57
2024/01/02 01:04:56;;;;;;;5.10;1.20;;;;;;;4.46;100.00;99844.94;105535;1255;69129;-56
2024/01/02 01:07:24;;;;;;;5.60;1.20;;;;;;;4.47;100.00;99844.73;105593;1253;69076;-56
2024/01/02 01:09:53;;;;;;;5.70;1.60;;;;;;;4.49;100.00;99846.95;105607;1253;73191;-56
2024/01/02 01:12:22;;;;;;;4.50;0.90;;;;;;;4.51;100.00;99849.15;105490;1253;81557;-56
2024/01/02 01:14:50;;;;;;;6.30;1.10;;;;;;;4.53;100.00;99848.08;105637;1253;70575;-56
2024/01/02 01:17:18;;;;;;;7.20;1.50;;;;;;;4.54;100.00;99846.67;105501;1254;69130;-56
2024/01/02 01:19:46;;;;;;;6.30;1.10;;;;;;;4.56;100.00;99847.51;105567;1255;69141;-55
2024/01/02 01:22:14;;;;;;;4.90;1.40;;;;;;;4.58;100.00;99843.49;105522;1253;72776;-56
2024/01/02 01:24:42;;;;;;;6.00;1.10;;;;;;;4.59;100.00;99845.70;105487;1253;81310;-55
2024/01/02 01:27:11;;;;;;;4.00;0.90;;;;;;;4.59;100.00;99847.77;105533;1253;71740;-55
2024/01/02 01:29:39;;;;;;;3.10;0.90;;;;;;;4.61;100.00;99849.46;105492;1255;69135;-55
2024/01/02 01:32:09;;;;;;;8.20;1.40;;;;;;;4.63;100.00;99848.38;105456;1258;69232;-55
2024/01/02 01:34:37;;;;;;;6.60;1.30;;;;;;;4.64;100.00;99845.95;105578;1254;75967;-54
2024/01/02 01:37:05;;;;;;;7.50;1.00;;;;;;;4.64;100.00;99843.00;105610;1255;81509;-55
2024/01/02 01:39:33;;;;;;;8.00;1.30;;;;;;;4.64;100.00;99846.28;105465;1256;71080;-51
2024/01/02 01:42:02;;;;;;;4.90;1.30;;;;;;;4.64;100.00;99850.45;105553;1253;69082;-55
2024/01/02 01:44:30;;;;;;;5.20;1.30;;;;;;;4.63;100.00;99847.54;105590;1253;69091;-53
2024/01/02 01:46:58;;;;;;;6.80;1.40;;;;;;;4.62;100.00;99846.33;105523;1255;74553;-54
2024/01/02 01:49:27;;;;;;;4.10;1.00;;;;;;;4.63;100.00;99845.95;105580;1255;81651;-55
2024/01/02 01:51:55;;;;;;;6.30;1.00;;;;;;;4.65;100.00;99845.58;105437;1253;72188;-55
2024/01/02 01:54:24;;;;;;;6.10;1.20;;;;;;;4.67;100.00;99843.45;105616;1254;69093;-52
2024/01/02 01:56:53;;;;;;;6.00;1.00;;;;;;;4.68;100.00;99843.95;105617;1256;69155;-53
2024/01/02 01:59:21;;;;;;;5.50;1.10;;;;;;;4.68;100.00;99841.17;105555;1259;71683;-55
2024/01/02 02:01:50;;;;;;;5.90;1.20;;;;;;;4.70;100.00;99839.05;105520;1258;81392;-52
2024/01/02 02:04:19;;;;;;;5.20;1.40;;;;;;;4.72;100.00;99846.12;105606;1253;71395;-55
2024/01/02 02:06:47;;;;;;;10.90;1.50;;;;;;;4.73;100.00;99844.02;105548;1255;69544;-54
2024/01/02 02:09:17;;;;;;;6.60;1.40;;;;;;;4.73;100.00;99844.54;105501;1257;69251;-54
2024/01/02 02:11:45;;;;;;;6.90;1.30;;;;;;;4.73;100.00;99841.06;105551;1255;72782;-56
2024/01/02 02:14:14;;;;;;;7.90;1.20;;;;;;;4.73;100.00;99838.83;105481;1258;81154;-54
2024/01/02 02:16:43;;;;;;;7.40;1.50;;;;;;;4.72;100.00;99839.02;105558;1253;72958;-54
2024/01/02 02:19:11;;;;;;;7.00;1.70;;;;;;;4.73;100.00;99834.34;105445;1258;69139;-55
2024/01/02 02:21:40;;;;;;;6.50;1.70;;;;;;;4.73;100.00;99835.73;105527;1257;69074;-55
2024/01/02 02:24:08;;;;;;;7.00;1.20;;;;;;;4.74;100.00;99836.56;105579;1257;75084;-55
2024/01/02 02:26:36;;;;;;;7.30;1.20;;;;;;;4.74;100.00;99830.84;105501;1257;82824;-57
2024/01/02 02:29:05;;;;;;;5.40;1.20;;;;;;;4.76;100.00;99834.10;105426;1254;71738;-55
2024/01/02 02:31:33;;;;;;;9.00;1.50;;;;;;;4.76;100.00;99834.61;105488;1256;69119;-54
2024/01/02 02:34:01;;;;;;;6.80;1.60;;;;;;;4.77;100.00;99835.62;105438;1257;69114;-56
2024/01/02 02:36:29;;;;;;;6.00;0.80;;;;;;;4.78;100.00;99833.86;105600;1253;73468;-55
2024/01/02 02:38:57;;;;;;;7.30;1.10;;;;;;;4.80;100.00;99830.20;105509;1255;81510;-56
2024/01/02 02:41:26;;;;;;;6.70;1.40;;;;;;;4.80;100.00;99828.11;105486;1253;72061;-56
2024/01/02 02:43:54;;;;;;;6.80;1.20;;;;;;;4.83;100.00;99829.08;105492;1255;69110;-55
2024/01/02 02:46:22;;;;;;;6.50;1.40;;;;;;;4.83;100.00;99827.69;105448;1258;69178;-56
2024/01/02 02:48:50;;;;;;;6.90;1.20;;;;;;;4.84;100.00;99825.25;105495;1254;74106;-56
2024/01/02 02:51:19;;;;;;;7.60;1.40;;;;;;;4.85;100.00;99825.74;105494;1255;81553;-56
2024/01/02 02:53:47;;;;;;;7.10;1.20;;;;;;;4.87;100.00;99832.62;105469;1253;70742;-56
2024/01/02 02:56:15;;;;;;;8.80;1.60;;;;;;;4.88;100.00;99829.83;105447;1253;69118;-55
2024/01/02 02:58:43;;;;;;;6.50;1.60;;;;;;;4.89;100.00;99830.33;105563;1255;69168;-55
2024/01/02 03:01:22;;;;;;;11.10;1.50;;;;;;;4.91;100.00;99826.13;105529;1256;72156;-56
2024/01/02 03:03:50;;;;;;;7.30;1.40;;;;;;;4.94;100.00;99829.01;105538;1255;81752;-55
2024/01/02 03:06:18;;;;;;;9.20;1.50;;;;;;;4.95;100.00;99828.83;105511;1253;71130;-56
2024/01/02 03:08:47;;;;;;;10.00;1.50;;;;;;;4.96;100.00;99828.27;105555;1256;69094;-55
2024/01/02 03:11:15;;;;;;;8.80;1.50;;;;;;;4.98;99.99;99825.11;105550;1256;69177;-55
2024/01/02 03:13:44;;;;;;;8.80;1.60;;;;;;;4.99;100.00;99819.89;105490;1254;72623;-56
2024/01/02 03:16:12;;;;;;;7.10;1.20;;;;;;;4.99;99.97;99823.35;105474;1254;80760;-56
2024/01/02 03:18:41;;;;;;;7.00;1.30;;;;;;;5.00;99.96;99822.13;105511;1256;72973;-54
2024/01/02 03:21:13;;;;;;;7.80;1.60;;;;;;;5.00;99.92;99816.73;105552;1255;69462;-54
2024/01/02 03:23:41;;;;;;;9.20;1.70;;;;;;;5.01;99.91;99812.90;105518;1255;69267;-56
2024/01/02 03:26:12;;;;;;;7.60;1.30;;;;;;;5.01;99.81;99810.48;105581;1256;72927;-56
2024/01/02 03:28:40;;;;;;;9.70;1.80;;;;;;;5.03;99.73;99808.02;105507;1255;82890;-56
2024/01/02 03:31:10;;;;;;;8.80;1.40;;;;;;;5.03;99.79;99808.18;105482;1255;72008;-55
2024/01/02 03:33:38;;;;;;;6.40;1.20;;;;;;;5.04;99.64;99808.84;105548;1253;69069;-54
2024/01/02 03:36:17;;;;;;;3.30;1.30;;;;;;;5.05;99.54;99810.91;105577;1255;69192;-56
2024/01/02 03:38:47;;;;;;;6.90;1.20;;;;;;;5.05;99.47;99815.23;105587;1256;72846;-56
2024/01/02 03:41:15;;;;;;;10.10;2.60;;;;;;;5.05;99.43;99816.27;105491;1255;81677;-55
2024/01/02 03:43:44;;;;;;;11.20;2.10;;;;;;;5.06;99.45;99813.14;105648;1265;71326;-55
2024/01/02 03:46:12;;;;;;;5.70;1.10;;;;;;;5.06;99.39;99810.35;105587;1252;69209;-52
2024/01/02 03:48:41;;;;;;;8.40;1.50;;;;;;;5.07;99.24;99807.40;105550;1256;69181;-57
2024/01/02 03:51:11;;;;;;;9.50;2.00;;;;;;;5.06;99.04;99807.92;105512;1255;73025;-58
2024/01/02 03:53:39;;;;;;;10.00;1.80;;;;;;;5.05;99.01;99806.23;105530;1253;82121;-58
2024/01/02 03:56:10;;;;;;;9.50;1.50;;;;;;;5.04;98.95;99801.23;105514;1256;71600;-57
2024/01/02 03:58:39;;;;;;;;;;;;;;;5.03;98.98;99794.69;105553;1255;69524;-57
2024/01/02 04:01:07;;;;;;;6.50;1.70;;;;;;;5.00;98.74;99791.45;105563;1252;69196;-58
2024/01/02 04:03:35;;;;;;;5.90;1.50;;;;;;;4.97;98.66;99786.17;105517;1256;72972;-57
2024/01/02 04:06:04;;;;;;;6.90;1.30;;;;;;;4.93;98.54;99785.40;105525;1255;82847;-58
2024/01/02 04:08:32;;;;;;;10.10;1.30;;;;;;;4.88;98.43;99781.54;105519;1256;71866;-57
2024/01/02 04:11:01;;;;;;;12.00;2.20;;;;;;;4.82;98.24;99782.35;105467;1256;69218;-58
2024/01/02 04:13:29;;;;;;;8.00;1.20;;;;;;;4.78;98.19;99775.20;105490;1255;69100;-57
2024/01/02 04:15:57;;;;;;;13.30;1.40;;;;;;;4.73;98.18;99774.10;105568;1253;73067;-58
2024/01/02 04:18:25;;;;;;;7.30;1.60;;;;;;;4.68;97.98;99770.91;105596;1254;81804;-58
2024/01/02 04:20:55;;;;;;;5.20;1.20;;;;;;;4.63;98.00;99766.88;105517;1256;71243;-58
2024/01/02 04:23:23;;;;;;;9.80;2.80;;;;;;;4.58;97.87;99770.27;105530;1255;69132;-57
2024/01/02 04:25:52;;;;;;;7.10;1.30;;;;;;;4.52;97.57;99770.77;105509;1253;69188;-58
2024/01/02 04:28:20;;;;;;;4.70;1.50;;;;;;;4.47;97.79;99766.55;105521;1255;73557;-57
2024/01/02 04:30:48;;;;;;;7.90;1.80;;;;;;;4.42;97.66;99766.32;105556;1255;81452;-57
2024/01/02 04:33:16;;;;;;;5.20;1.40;;;;;;;4.38;97.60;99765.52;105476;1257;71739;-57
2024/01/02 04:35:45;;;;;;;9.10;2.00;;;;;;;4.32;97.44;99762.21;105503;1252;69118;-58
2024/01/02 04:38:13;;;;;;;6.20;1.20;;;;;;;4.24;97.35;99752.86;105495;1259;69192;-57
2024/01/02 04:40:42;;;;;;;5.50;1.60;;;;;;;4.16;97.34;99749.92;105463;1255;72636;-57
2024/01/02 04:43:10;;;;;;;6.90;1.50;;;;;;;4.10;97.37;99749.02;105521;1255;81864;-58
2024/01/02 04:45:38;;;;;;;6.60;1.40;;;;;;;4.04;97.50;99749.65;105498;1254;70695;-57
2024/01/02 04:48:06;;;;;;;5.40;1.60;;;;;;;3.98;97.56;99747.00;105536;1252;69128;-58
2024/01/02 04:50:35;;;;;;;10.40;2.00;;;;;;;3.90;97.48;99745.80;105539;1256;69151;-58
2024/01/02 04:53:03;;;;;;;10.40;1.70;;;;;;;3.83;97.49;99746.46;105506;1256;73471;-58
2024/01/02 04:55:31;;;;;;;6.00;1.90;;;;;;;3.75;97.49;99743.86;105483;1256;82049;-57
2024/01/02 04:58:01;;;;;;;10.70;2.10;;;;;;;3.67;97.57;99742.46;105471;1256;71810;-57
2024/01/02 05:00:29;;;;;;;5.80;1.50;;;;;;;3.59;97.65;99740.00;105519;1257;69417;-57
2024/01/02 05:02:57;;;;;;;13.30;2.10;;;;;;;3.52;97.47;99736.00;105507;1256;69203;-57
2024/01/02 05:05:26;;;;;;;7.70;1.80;;;;;;;3.45;97.59;99732.52;105477;1254;74594;-57
2024/01/02 05:07:54;;;;;;;7.30;1.80;;;;;;;3.39;97.71;99732.11;105460;1257;81910;-58
2024/01/02 05:10:22;;;;;;;7.70;1.70;;;;;;;3.33;97.86;99730.30;105430;1253;72111;-57
2024/01/02 05:12:51;;;;;;;7.70;2.20;;;;;;;3.27;97.80;99723.52;105546;1257;69115;-53
2024/01/02 05:15:19;;;;;;;9.60;2.50;;;;;;;3.22;97.87;99725.67;105523;1257;69126;-56
2024/01/02 05:17:47;;;;;;;9.70;2.30;;;;;;;3.17;98.00;99723.70;105528;1253;73445;-50
2024/01/02 05:20:16;;;;;;;12.40;3.10;;;;;;;3.10;98.00;99718.48;105534;1257;82763;-50
2024/01/02 05:22:44;;;;;;;6.20;2.30;;;;;;;3.07;98.19;99720.60;105491;1258;72366;-50
2024/01/02 05:25:13;;;;;;;8.20;3.00;;;;;;;3.04;98.32;99724.79;105450;1257;69958;-50
2024/01/02 05:27:41;;;;;;;11.80;3.90;;;;;;;2.99;98.64;99720.55;105526;1255;70004;-50
2024/01/02 05:30:09;;;;;;;7.10;1.90;;;;;;;2.93;98.54;99720.99;105423;1258;72011;-50
2024/01/02 05:32:38;;;;;;;9.20;2.60;;;;;;;2.88;98.37;99723.67;105532;1258;81670;-52
2024/01/02 05:35:07;;;;;;;13.70;4.60;;;;;;;2.83;98.65;99723.92;105438;1254;71768;-51
2024/01/02 05:37:35;;;;;;;15.60;4.10;;;;;;;2.80;98.63;99724.14;105597;1255;69872;-51
2024/01/02 05:40:04;;;;;;;16.60;5.00;;;;;;;2.78;98.92;99724.68;105571;1264;69993;-48
2024/01/02 05:42:32;;;;;;;13.10;4.20;;;;;;;2.77;98.95;99724.19;105599;1257;73254;-49
2024/01/02 05:45:01;;;;;;;9.60;2.80;;;;;;;2.74;98.87;99721.48;105471;1257;81642;-49
2024/01/02 05:47:29;;;;;;;9.50;1.80;;;;;;;2.66;98.47;99725.05;105566;1257;70785;-50
2024/01/02 05:49:57;;;;;;;10.00;2.00;;;;;;;2.60;98.41;99725.14;105430;1264;69938;-50
2024/01/02 05:52:26;;;;;;;5.50;1.80;;;;;;;2.57;98.74;99723.12;105507;1258;69881;-50
2024/01/02 05:54:54;;;;;;;8.10;2.20;;;;;;;2.55;98.94;99723.66;105517;1253;73062;-51
2024/01/02 05:57:22;;;;;;;6.50;1.70;;;;;;;2.51;99.10;99724.25;105462;1259;81967;-50
2024/01/02 05:59:50;;;;;;;8.20;2.00;;;;;;;2.44;98.56;99727.63;105507;1256;71179;-51
2024/01/02 06:02:18;;;;;;;11.90;2.50;;;;;;;2.38;98.65;99730.14;105504;1257;69893;-51
2024/01/02 06:04:46;;;;;;;10.90;2.40;;;;;;;2.33;98.77;99730.71;105502;1257;69733;-50
2024/01/02 06:07:14;;;;;;;9.00;2.90;;;;;;;2.27;98.59;99727.34;105515;1254;73479;-50
2024/01/02 06:09:42;;;;;;;10.00;2.90;;;;;;;2.23;99.00;99726.89;105494;1264;81065;-50
2024/01/02 06:12:11;;;;;;;9.20;2.50;;;;;;;2.18;99.12;99721.09;105453;1254;72654;-48
2024/01/02 06:14:39;;;;;;;12.40;3.00;;;;;;;2.18;99.46;99718.86;105465;1256;69923;-51
2024/01/02 06:17:07;;;;;;;9.80;3.10;;;;;;;2.15;99.68;99717.17;105508;1256;70005;-50
2024/01/02 06:19:35;;;;;;;10.20;2.90;;;;;;;2.13;99.67;99715.31;105507;1257;72591;-49
2024/01/02 06:22:04;;;;;;;10.50;2.70;;;;;;;2.09;99.60;99712.27;105535;1261;81892;-49
2024/01/02 06:24:32;;;;;;;5.80;2.60;;;;;;;2.05;99.61;99708.01;105508;1264;71804;-50
2024/01/02 06:27:00;;;;;;;8.60;2.80;;;;;;;2.00;99.48;99706.69;105425;1254;70072;-50
2024/01/02 06:29:28;;;;;;;12.20;2.50;;;;;;;1.94;99.49;99701.95;105478;1266;69995;-50
2024/01/02 06:31:56;;;;;;;8.60;3.30;;;;;;;1.87;99.12;99701.01;105507;1254;74122;-51
2024/01/02 06:34:25;;;;;;;9.70;3.50;;;;;;;1.78;99.01;99705.77;105543;1257;81409;-50
2024/01/02 06:36:53;;;;;;;10.60;2.50;;;;;;;1.69;98.83;99700.53;105485;1259;72021;-49
2024/01/02 06:39:21;;;;;;;9.40;2.50;;;;;;;1.60;98.52;99697.02;105512;1257;70207;-51
2024/01/02 06:41:49;;;;;;;9.80;2.70;;;;;;;1.53;98.93;99692.98;105485;1254;70044;-50
2024/01/02 06:44:18;;;;;;;6.50;2.40;;;;;;;1.50;98.80;99692.50;105557;1252;71416;-49
2024/01/02 06:46:46;;;;;;;13.10;3.50;;;;;;;1.46;99.22;99692.36;105593;1256;82103;-50
2024/01/02 06:49:14;;;;;;;12.10;3.60;;;;;;;1.47;99.72;99696.50;105646;1256;72145;-49
2024/01/02 06:51:42;;;;;;;31.40;9.70;;;;;;;1.48;99.88;99692.17;105697;1254;70055;-49
2024/01/02 06:54:11;;;;;;;223.80;64.20;;;;;;;1.48;100.00;99690.80;105583;1257;70181;-51
2024/01/02 06:56:39;;;;;;;62.80;21.40;;;;;;;1.50;100.00;99688.35;105555;1254;72861;-49
2024/01/02 06:59:07;;;;;;;25.70;7.50;;;;;;;1.50;100.00;99685.78;105515;1258;83180;-50
2024/01/02 07:01:36;;;;;;;99.30;26.10;;;;;;;1.50;100.00;99680.97;105668;1256;72333;-50
2024/01/02 07:04:04;;;;;;;39.00;11.10;;;;;;;1.52;100.00;99677.67;105692;1257;69912;-50
2024/01/02 07:06:32;;;;;;;95.30;24.30;;;;;;;1.54;100.00;99679.54;105616;1256;69943;-50
2024/01/02 07:09:01;;;;;;;107.40;23.30;;;;;;;1.55;100.00;99673.67;105541;1256;73270;-50
2024/01/02 07:11:29;;;;;;;77.20;19.50;;;;;;;1.55;100.00;99668.67;105667;1264;81885;-49
2024/01/02 07:13:57;;;;;;;51.90;11.80;;;;;;;1.57;100.00;99666.08;105501;1256;71864;-50
2024/01/02 07:16:25;;;;;;;90.80;22.90;;;;;;;1.58;100.00;99664.18;105690;1254;69872;-50
2024/01/02 07:18:54;;;;;;;87.80;23.60;;;;;;;1.59;100.00;99657.95;105564;1256;69944;-49
2024/01/02 07:21:22;;;;;;;48.20;15.00;;;;;;;1.61;100.00;99649.31;105593;1258;74643;-48
2024/01/02 07:23:50;;;;;;;45.20;13.60;;;;;;;1.59;100.00;99646.42;105594;1255;81518;-52
2024/01/02 07:26:18;;;;;;;65.20;19.00;;;;;;;1.60;100.00;99652.09;105529;1253;72446;-55
2024/01/02 07:28:47;;;;;;;48.00;15.00;;;;;;;1.61;100.00;99647.42;105683;1255;69180;-55
2024/01/02 07:31:15;;;;;;;47.70;12.90;;;;;;;1.63;100.00;99640.86;105605;1256;69211;-54
2024/01/02 07:33:43;;;;;;;26.50;7.30;;;;;;;1.67;100.00;99637.70;105603;1256;72867;-52
2024/01/02 07:36:12;;;;;;;23.50;5.90;;;;;;;1.69;100.00;99639.91;105534;1256;81883;-50
2024/01/02 07:38:40;;;;;;;24.70;7.50;;;;;;;1.72;100.00;99641.27;105623;1256;71602;-50
2024/01/02 07:41:08;;;;;;;36.10;11.10;;;;;;;1.74;100.00;99637.44;105538;1257;69827;-52
2024/01/02 07:43:36;;;;;;;37.10;10.30;;;;;;;1.77;100.00;99637.23;105570;1256;69980;-52
2024/01/02 07:46:05;;;;;;;29.30;9.40;;;;;;;1.80;100.00;99633.91;105848;1254;73075;-51
2024/01/02 07:48:33;;;;;;;19.80;6.80;;;;;;;1.85;100.00;99640.39;105958;1258;81236;-51
2024/01/02 07:51:02;;;;;;;23.20;6.90;;;;;;;1.88;100.00;99638.79;105516;1256;71870;-50
2024/01/02 07:53:34;;;;;;;32.10;9.30;;;;;;;1.90;100.00;99637.06;105673;1251;69884;-51
2024/01/02 07:56:04;;;;;;;49.60;15.80;;;;;;;1.93;100.00;99635.64;105621;1259;69848;-51
2024/01/02 07:58:33;;;;;;;120.10;37.10;;;;;;;1.97;100.00;99634.36;105635;1257;72800;-53
2024/01/02 08:01:01;;;;;;;95.10;23.10;;;;;;;2.00;100.00;99634.66;105563;1258;82574;-53
2024/01/02 08:03:29;;;;;;;82.60;19.80;;;;;;;2.04;100.00;99637.20;105849;1256;71106;-54
2024/01/02 08:05:58;;;;;;;60.50;14.00;;;;;;;2.06;100.00;99635.45;105549;1257;69883;-52
2024/01/02 08:08:30;;;;;;;41.60;11.40;;;;;;;2.08;100.00;99631.96;105585;1256;70014;-50
2024/01/02 08:10:58;;;;;;;49.90;12.90;;;;;;;2.12;100.00;99628.11;105652;1256;74278;-50
2024/01/02 08:13:27;;;;;;;43.50;11.90;;;;;;;2.15;100.00;99622.56;105685;1255;82703;-51
2024/01/02 08:15:55;;;;;;;44.30;12.10;;;;;;;2.19;100.00;99620.59;105648;1254;73092;-49
2024/01/02 08:18:24;;;;;;;38.10;10.00;;;;;;;2.22;100.00;99617.80;105741;1256;69872;-52
2024/01/02 08:20:52;;;;;;;44.40;11.90;;;;;;;2.24;100.00;99613.98;105664;1257;69155;-53
2024/01/02 08:23:20;;;;;;;106.20;30.10;;;;;;;2.28;100.00;99610.64;105656;1256;72652;-50
2024/01/02 08:25:49;;;;;;;290.90;77.00;;;;;;;2.31;100.00;99604.05;105649;1255;81373;-53
2024/01/02 08:28:18;;;;;;;86.30;22.00;;;;;;;2.35;100.00;99601.91;105740;1254;71908;-53
2024/01/02 08:30:46;;;;;;;38.50;9.00;;;;;;;2.38;100.00;99599.77;105767;1255;70504;-55
2024/01/02 08:33:14;;;;;;;24.70;7.50;;;;;;;2.42;100.00;99600.74;105588;1257;69939;-52
2024/01/02 08:35:44;;;;;;;27.90;8.70;;;;;;;2.46;100.00;99596.54;105711;1255;73025;-51
2024/01/02 08:38:13;;;;;;;22.90;8.80;;;;;;;2.48;100.00;99596.34;105595;1255;81784;-52
2024/01/02 08:40:41;;;;;;;55.50;17.10;;;;;;;2.50;100.00;99595.79;105634;1256;73252;-50
2024/01/02 08:43:09;;;;;;;86.90;26.70;;;;;;;2.54;100.00;99591.59;105600;1255;69843;-51
2024/01/02 08:45:38;;;;;;;76.40;23.70;;;;;;;2.56;100.00;99586.89;105632;1262;69932;-49
2024/01/02 08:48:10;;;;;;;28.10;8.50;;;;;;;2.60;100.00;99580.27;105563;1256;72966;-50
2024/01/02 08:50:42;;;;;;;18.40;5.30;;;;;;;2.62;100.00;99576.10;105654;1256;80715;-50
2024/01/02 08:53:12;;;;;;;27.20;8.20;;;;;;;2.65;100.00;99568.45;105854;1258;71442;-49
2024/01/02 08:55:40;;;;;;;18.70;6.20;;;;;;;2.69;100.00;99565.44;105631;1256;69923;-50
2024/01/02 08:58:09;;;;;;;19.50;5.50;;;;;;;2.72;100.00;99561.24;105664;1255;69980;-50
2024/01/02 09:00:37;;;;;;;20.30;6.10;;;;;;;2.76;100.00;99557.56;105759;1254;74661;-49
2024/01/02 09:03:06;;;;;;;18.30;5.70;;;;;;;2.79;100.00;99554.39;105555;1255;82874;-51
2024/01/02 09:05:35;;;;;;;24.70;8.00;;;;;;;2.82;100.00;99550.20;105726;1256;72235;-51
2024/01/02 09:08:04;;;;;;;24.50;6.80;;;;;;;2.85;100.00;99548.25;105648;1254;70601;-48
2024/01/02 09:10:33;;;;;;;22.80;6.50;;;;;;;2.88;100.00;99540.41;105664;1257;69872;-48
2024/01/02 09:13:02;;;;;;;16.80;5.90;;;;;;;2.93;100.00;99539.98;105995;1254;74259;-58
2024/01/02 09:15:30;;;;;;;17.50;5.40;;;;;;;2.98;100.00;99535.91;105527;1257;82724;-56
2024/01/02 09:17:59;;;;;;;18.00;5.90;;;;;;;3.02;100.00;99530.46;105659;1254;72075;-54
2024/01/02 09:20:27;;;;;;;15.60;5.10;;;;;;;3.07;100.00;99523.45;105545;1254;69187;-55
2024/01/02 09:22:56;;;;;;;20.90;7.00;;;;;;;3.12;100.00;99519.23;105562;1255;69183;-50
2024/01/02 09:25:26;;;;;;;27.40;7.40;;;;;;;3.17;100.00;99517.39;105561;1257;73697;-55
2024/01/02 09:28:00;;;;;;;25.70;7.40;;;;;;;3.20;100.00;99512.14;105772;1256;81538;-56
2024/01/02 09:30:31;;;;;;;27.60;8.10;;;;;;;3.26;100.00;99509.77;105496;1254;71660;-55
2024/01/02 09:32:59;;;;;;;29.50;8.60;;;;;;;3.30;100.00;99505.37;105762;1256;69082;-55
2024/01/02 09:35:28;;;;;;;24.60;7.50;;;;;;;3.36;100.00;99502.48;105590;1256;69761;-55
2024/01/02 09:37:56;;;;;;;25.50;8.60;;;;;;;3.41;100.00;99495.83;105675;1253;74290;-55
2024/01/02 09:40:36;;;;;;;18.30;7.40;;;;;;;3.46;100.00;99490.52;105648;1255;82633;-52
2024/01/02 09:43:30;;;;;;;14.40;5.80;;;;;;;3.52;100.00;99486.93;105676;1257;71975;-55
2024/01/02 09:46:04;;;;;;;19.00;7.10;;;;;;;3.59;100.00;99483.48;105571;1257;69080;-51
2024/01/02 09:49:05;;;;;;;64.30;22.60;;;;;;;3.65;100.00;99477.13;105642;1256;69126;-52
2024/01/02 09:51:54;;;;;;;74.40;22.40;;;;;;;3.74;100.00;99467.94;105595;1255;72885;-52
2024/01/02 09:54:50;;;;;;;131.20;37.40;;;;;;;3.82;100.00;99464.78;105728;1257;81445;-54
2024/01/02 09:57:40;;;;;;;78.90;21.40;;;;;;;3.91;100.00;99459.38;105620;1254;71799;-52
2024/01/02 10:00:12;;;;;;;42.60;14.80;;;;;;;4.01;100.00;99456.02;105684;1254;69103;-52
2024/01/02 10:02:52;;;;;;;28.40;9.60;;;;;;;4.09;100.00;99454.27;105774;1257;69004;-54
2024/01/02 10:05:29;;;;;;;26.20;9.60;;;;;;;4.16;100.00;99450.79;105717;1254;75099;-54
2024/01/02 10:08:06;;;;;;;28.60;12.30;;;;;;;4.25;100.00;99453.15;105647;1255;81323;-49
2024/01/02 10:10:36;;;;;;;38.90;14.80;;;;;;;4.30;100.00;99446.81;105594;1253;71677;-49
2024/01/02 10:13:24;;;;;;;61.10;19.80;;;;;;;4.35;100.00;99440.95;105560;1255;70181;-50
2024/01/02 10:16:01;;;;;;;27.00;9.90;;;;;;;4.41;100.00;99436.28;105679;1254;69885;-49
2024/01/02 10:18:38;;;;;;;28.60;9.50;;;;;;;4.48;100.00;99425.72;105568;1256;73376;-54
2024/01/02 10:21:32;;;;;;;28.60;8.90;;;;;;;4.54;100.00;99423.84;105629;1256;81394;-48
2024/01/02 10:24:15;;;;;;;18.30;7.20;;;;;;;4.58;100.00;99415.42;105560;1258;71672;-54
2024/01/02 10:26:57;;;;;;;27.70;10.60;;;;;;;4.60;100.00;99408.09;105522;1256;69999;-50
2024/01/02 10:29:48;;;;;;;17.20;7.60;;;;;;;4.61;100.00;99403.91;105466;1254;69995;-50
2024/01/02 10:32:24;;;;;;;16.60;8.00;;;;;;;4.62;100.00;99396.42;105567;1255;72790;-51
2024/01/02 10:35:11;;;;;;;14.80;7.80;;;;;;;4.65;100.00;99397.56;105583;1255;83489;-52
2024/01/02 10:37:47;;;;;;;20.00;7.30;;;;;;;4.67;100.00;99388.67;105573;1254;72015;-53
2024/01/02 10:40:23;;;;;;;16.10;7.00;;;;;;;4.68;100.00;99381.21;105634;1255;69964;-52
2024/01/02 10:43:18;;;;;;;13.40;6.50;;;;;;;4.71;100.00;99374.20;105482;1257;164694;-50
2024/01/02 10:45:49;;;;;;;11.80;5.70;;;;;;;4.74;100.00;99370.65;105552;1254;72827;-53
2024/01/02 10:48:36;;;;;;;14.20;6.10;;;;;;;4.75;100.00;99367.84;105594;1257;81396;-51
2024/01/02 10:51:09;;;;;;;14.10;5.90;;;;;;;4.82;100.00;99357.79;105544;1256;71711;-51
2024/01/02 10:53:56;;;;;;;15.50;6.40;;;;;;;4.86;100.00;99349.00;105539;1256;69913;-54
2024/01/02 10:56:53;;;;;;;18.60;7.80;;;;;;;4.90;100.00;99343.34;105536;1254;69982;-50
2024/01/02 10:59:27;;;;;;;13.60;6.20;;;;;;;4.96;100.00;99337.29;105581;1253;73145;-50
2024/01/02 11:02:12;;;;;;;16.40;6.50;;;;;;;5.03;100.00;99328.23;105580;1255;81610;-52
2024/01/02 11:04:53;;;;;;;15.20;6.50;;;;;;;5.11;100.00;99322.43;105564;1254;72071;-53
2024/01/02 11:07:22;;;;;;;20.90;5.90;;;;;;;5.21;100.00;99324.88;105601;1256;69915;-50
2024/01/02 11:10:03;;;;;;;17.30;5.80;;;;;;;5.29;100.00;99319.95;105536;1254;70040;-50
2024/01/02 11:12:37;;;;;;;16.50;6.00;;;;;;;5.34;100.00;99315.80;105603;1256;73092;-53
2024/01/02 11:15:11;;;;;;;13.40;6.10;;;;;;;5.36;100.00;99314.85;105594;1253;81667;-52
2024/01/02 11:17:41;;;;;;;16.70;6.40;;;;;;;5.38;100.00;99306.46;105412;1257;71751;-52
2024/01/02 11:20:14;;;;;;;38.60;14.00;;;;;;;5.39;100.00;99294.31;105551;1254;69743;-49
2024/01/02 11:23:01;;;;;;;16.70;6.50;;;;;;;5.37;100.00;99285.70;105546;1252;69788;-53
2024/01/02 11:25:32;;;;;;;15.60;6.00;;;;;;;5.36;100.00;99275.35;105553;1257;73141;-50
2024/01/02 11:28:12;;;;;;;17.70;5.80;;;;;;;5.35;100.00;99274.17;105539;1256;81702;-50
2024/01/02 11:30:47;;;;;;;13.60;5.00;;;;;;;5.35;100.00;99270.88;105412;1257;71876;-55
2024/01/02 11:33:24;;;;;;;14.30;6.40;;;;;;;5.35;100.00;99266.56;105467;1257;69141;-55
2024/01/02 11:36:22;;;;;;;12.30;4.70;;;;;;;5.34;100.00;99259.33;105638;1257;69176;-55